sensor_id;sensor_type;location;lat;lon;timestamp;pressure;altitude;pressure_sealevel;temperature;humidity
4598;BME280;62772;48.646;8.906;2023-03-03T00:02:50;96405.44;;;-1.02;100.00
4598;BME280;62772;48.646;8.906;2023-03-03T00:07:50;96405.03;;;-1.11;100.00
4598;BME280;62772;48.646;8.906;2023-03-03T00:12:51;96411.00;;;-0.99;100.00
4598;BME280;62772;48.646;8.906;2023-03-03T00:17:52;96410.13;;;-1.04;100.00
4598;BME280;62772;48.646;8.906;2023-03-03T00:22:52;96416.69;;;-0.90;100.00
4598;BME280;62772;48.646;8.906;2023-03-03T00:27:53;96418.56;;;-0.74;100.00
4598;BME280;62772;48.646;8.906;2023-03-03T00:32:54;96416.31;;;-0.53;100.00
4598;BME280;62772;48.646;8.906;2023-03-03T00:38:00;96411.72;;;-0.29;100.00
4598;BME280;62772;48.646;8.906;2023-03-03T00:43:01;96418.72;;;-0.34;100.00
4598;BME280;62772;48.646;8.906;2023-03-03T00:48:26;96410.13;;;-0.30;100.00
4598;BME280;62772;48.646;8.906;2023-03-03T00:53:29;96404.22;;;-0.37;100.00
4598;BME280;62772;48.646;8.906;2023-03-03T00:58:29;96407.56;;;-0.42;100.00
4598;BME280;62772;48.646;8.906;2023-03-03T01:03:31;96412.81;;;-0.42;100.00
4598;BME280;62772;48.646;8.906;2023-03-03T01:08:32;96408.88;;;-0.73;100.00
4598;BME280;62772;48.646;8.906;2023-03-03T01:13:33;96410.09;;;-1.33;100.00
4598;BME280;62772;48.646;8.906;2023-03-03T01:18:35;96411.28;;;-1.12;100.00
4598;BME280;62772;48.646;8.906;2023-03-03T01:23:36;96410.53;;;-1.24;100.00
4598;BME280;62772;48.646;8.906;2023-03-03T01:28:37;96413.53;;;-0.92;100.00
4598;BME280;62772;48.646;8.906;2023-03-03T01:33:37;96407.06;;;-1.66;100.00
4598;BME280;62772;48.646;8.906;2023-03-03T01:38:38;96402.38;;;-1.40;100.00
4598;BME280;62772;48.646;8.906;2023-03-03T01:43:44;96399.81;;;-1.23;100.00
4598;BME280;62772;48.646;8.906;2023-03-03T01:48:45;96407.75;;;-1.70;100.00
4598;BME280;62772;48.646;8.906;2023-03-03T01:53:49;96411.94;;;-2.28;100.00
4598;BME280;62772;48.646;8.906;2023-03-03T01:59:14;96415.63;;;-1.82;100.00
4598;BME280;62772;48.646;8.906;2023-03-03T02:04:16;96401.94;;;-1.72;100.00
4598;BME280;62772;48.646;8.906;2023-03-03T02:09:28;96405.81;;;-2.22;100.00
4598;BME280;62772;48.646;8.906;2023-03-03T02:14:31;96395.00;;;-2.26;100.00
4598;BME280;62772;48.646;8.906;2023-03-03T02:24:50;96378.28;;;-1.89;100.00
4598;BME280;62772;48.646;8.906;2023-03-03T02:29:53;96384.06;;;-2.34;100.00
4598;BME280;62772;48.646;8.906;2023-03-03T02:34:54;96378.16;;;-2.06;100.00
4598;BME280;62772;48.646;8.906;2023-03-03T02:39:56;96375.31;;;-2.05;100.00
4598;BME280;62772;48.646;8.906;2023-03-03T02:44:56;96375.75;;;-2.31;100.00
4598;BME280;62772;48.646;8.906;2023-03-03T02:49:57;96383.78;;;-2.57;100.00
4598;BME280;62772;48.646;8.906;2023-03-03T02:54:57;96379.88;;;-2.24;100.00
4598;BME280;62772;48.646;8.906;2023-03-03T02:59:58;96384.13;;;-2.95;100.00
4598;BME280;62772;48.646;8.906;2023-03-03T03:04:59;96383.66;;;-2.74;100.00
4598;BME280;62772;48.646;8.906;2023-03-03T03:10:00;96391.28;;;-2.60;100.00
4598;BME280;62772;48.646;8.906;2023-03-03T03:15:04;96389.97;;;-2.39;100.00
4598;BME280;62772;48.646;8.906;2023-03-03T03:20:05;96394.06;;;-2.20;100.00
4598;BME280;62772;48.646;8.906;2023-03-03T03:25:07;96395.59;;;-2.66;100.00
4598;BME280;62772;48.646;8.906;2023-03-03T03:30:08;96399.56;;;-2.09;100.00
4598;BME280;62772;48.646;8.906;2023-03-03T03:35:09;96397.09;;;-2.58;100.00
4598;BME280;62772;48.646;8.906;2023-03-03T03:40:12;96387.75;;;-2.66;100.00
4598;BME280;62772;48.646;8.906;2023-03-03T03:45:12;96393.50;;;-2.87;100.00
4598;BME280;62772;48.646;8.906;2023-03-03T03:50:16;96392.84;;;-2.71;100.00
4598;BME280;62772;48.646;8.906;2023-03-03T03:55:18;96390.22;;;-2.71;100.00
4598;BME280;62772;48.646;8.906;2023-03-03T04:00:19;96391.91;;;-2.34;100.00
4598;BME280;62772;48.646;8.906;2023-03-03T04:05:26;96393.88;;;-2.06;100.00
4598;BME280;62772;48.646;8.906;2023-03-03T04:10:27;96401.34;;;-2.33;100.00
4598;BME280;62772;48.646;8.906;2023-03-03T04:15:30;96393.97;;;-2.37;100.00
4598;BME280;62772;48.646;8.906;2023-03-03T04:20:32;96390.91;;;-2.33;100.00
4598;BME280;62772;48.646;8.906;2023-03-03T04:25:32;96391.78;;;-2.28;100.00
4598;BME280;62772;48.646;8.906;2023-03-03T04:30:33;96396.25;;;-1.93;100.00
4598;BME280;62772;48.646;8.906;2023-03-03T04:35:34;96391.25;;;-1.71;100.00
4598;BME280;62772;48.646;8.906;2023-03-03T04:40:36;96392.19;;;-1.24;100.00
4598;BME280;62772;48.646;8.906;2023-03-03T04:45:37;96401.47;;;-1.05;100.00
4598;BME280;62772;48.646;8.906;2023-03-03T04:50:38;96409.91;;;-1.15;100.00
4598;BME280;62772;48.646;8.906;2023-03-03T04:55:39;96408.22;;;-1.09;100.00
4598;BME280;62772;48.646;8.906;2023-03-03T05:00:40;96408.44;;;-1.11;100.00
4598;BME280;62772;48.646;8.906;2023-03-03T05:05:42;96411.09;;;-1.22;100.00
4598;BME280;62772;48.646;8.906;2023-03-03T05:10:42;96411.25;;;-1.00;100.00
4598;BME280;62772;48.646;8.906;2023-03-03T05:15:48;96422.69;;;-1.06;100.00
4598;BME280;62772;48.646;8.906;2023-03-03T05:20:50;96433.06;;;-0.83;100.00
4598;BME280;62772;48.646;8.906;2023-03-03T05:25:51;96436.44;;;-0.99;100.00
4598;BME280;62772;48.646;8.906;2023-03-03T05:30:51;96430.19;;;-1.10;100.00
4598;BME280;62772;48.646;8.906;2023-03-03T05:35:55;96427.06;;;-1.24;100.00
4598;BME280;62772;48.646;8.906;2023-03-03T05:40:56;96430.41;;;-1.52;100.00
4598;BME280;62772;48.646;8.906;2023-03-03T05:45:57;96426.19;;;-1.65;100.00
4598;BME280;62772;48.646;8.906;2023-03-03T05:50:58;96441.81;;;-1.70;100.00
4598;BME280;62772;48.646;8.906;2023-03-03T05:55:59;96432.56;;;-1.49;100.00
4598;BME280;62772;48.646;8.906;2023-03-03T06:00:59;96438.09;;;-1.34;100.00
4598;BME280;62772;48.646;8.906;2023-03-03T06:06:00;96448.25;;;-1.37;100.00
4598;BME280;62772;48.646;8.906;2023-03-03T06:11:00;96449.53;;;-1.40;100.00
4598;BME280;62772;48.646;8.906;2023-03-03T06:16:02;96453.25;;;-1.36;100.00
4598;BME280;62772;48.646;8.906;2023-03-03T06:21:02;96452.22;;;-1.23;100.00
4598;BME280;62772;48.646;8.906;2023-03-03T06:26:03;96462.28;;;-1.32;100.00
4598;BME280;62772;48.646;8.906;2023-03-03T06:31:04;96473.19;;;-1.47;100.00
4598;BME280;62772;48.646;8.906;2023-03-03T06:36:04;96471.72;;;-1.31;100.00
4598;BME280;62772;48.646;8.906;2023-03-03T06:41:05;96474.09;;;-1.17;100.00
4598;BME280;62772;48.646;8.906;2023-03-03T06:46:07;96477.28;;;-1.15;100.00
4598;BME280;62772;48.646;8.906;2023-03-03T06:51:24;96484.34;;;-1.28;100.00
4598;BME280;62772;48.646;8.906;2023-03-03T06:56:28;96488.00;;;-1.05;100.00
4598;BME280;62772;48.646;8.906;2023-03-03T07:01:34;96500.97;;;-0.98;100.00
4598;BME280;62772;48.646;8.906;2023-03-03T07:06:35;96501.66;;;-1.03;100.00
4598;BME280;62772;48.646;8.906;2023-03-03T07:11:36;96498.78;;;-0.61;100.00
4598;BME280;62772;48.646;8.906;2023-03-03T07:16:40;96506.47;;;-0.71;100.00
4598;BME280;62772;48.646;8.906;2023-03-03T07:21:40;96503.41;;;-0.68;100.00
4598;BME280;62772;48.646;8.906;2023-03-03T07:26:41;96517.75;;;-0.59;100.00
4598;BME280;62772;48.646;8.906;2023-03-03T07:31:45;96525.09;;;-0.44;100.00
4598;BME280;62772;48.646;8.906;2023-03-03T07:36:49;96514.97;;;-0.52;100.00
4598;BME280;62772;48.646;8.906;2023-03-03T07:41:49;96529.25;;;-0.31;100.00
4598;BME280;62772;48.646;8.906;2023-03-03T07:46:51;96530.91;;;-0.42;100.00
4598;BME280;62772;48.646;8.906;2023-03-03T07:51:56;96531.00;;;-0.37;100.00
4598;BME280;62772;48.646;8.906;2023-03-03T07:57:35;96538.75;;;-0.30;100.00
4598;BME280;62772;48.646;8.906;2023-03-03T08:02:43;96534.38;;;-0.24;100.00
4598;BME280;62772;48.646;8.906;2023-03-03T08:07:44;96526.59;;;-0.19;100.00
4598;BME280;62772;48.646;8.906;2023-03-03T08:12:44;96545.38;;;-0.10;100.00
4598;BME280;62772;48.646;8.906;2023-03-03T08:17:49;96541.72;;;-0.09;100.00
4598;BME280;62772;48.646;8.906;2023-03-03T08:22:50;96530.06;;;-0.02;100.00
4598;BME280;62772;48.646;8.906;2023-03-03T08:27:50;96535.53;;;0.14;100.00
4598;BME280;62772;48.646;8.906;2023-03-03T08:32:51;96533.34;;;0.23;100.00
4598;BME280;62772;48.646;8.906;2023-03-03T08:37:51;96535.09;;;0.34;100.00
4598;BME280;62772;48.646;8.906;2023-03-03T08:42:52;96538.25;;;0.70;100.00
4598;BME280;62772;48.646;8.906;2023-03-03T08:47:53;96538.25;;;0.70;100.00
4598;BME280;62772;48.646;8.906;2023-03-03T08:52:55;96532.59;;;0.78;100.00
4598;BME280;62772;48.646;8.906;2023-03-03T08:57:55;96536.81;;;0.79;100.00
4598;BME280;62772;48.646;8.906;2023-03-03T09:02:56;96543.16;;;1.00;100.00
4598;BME280;62772;48.646;8.906;2023-03-03T09:07:56;96543.91;;;1.40;100.00
4598;BME280;62772;48.646;8.906;2023-03-03T09:13:01;96557.50;;;1.54;100.00
4598;BME280;62772;48.646;8.906;2023-03-03T09:18:38;96554.88;;;1.54;100.00
4598;BME280;62772;48.646;8.906;2023-03-03T09:23:52;96557.13;;;1.67;100.00
4598;BME280;62772;48.646;8.906;2023-03-03T09:28:55;96566.91;;;1.72;100.00
4598;BME280;62772;48.646;8.906;2023-03-03T09:33:57;96572.41;;;1.92;100.00
4598;BME280;62772;48.646;8.906;2023-03-03T09:38:59;96567.00;;;2.04;100.00
4598;BME280;62772;48.646;8.906;2023-03-03T09:49:35;96579.47;;;2.14;100.00
4598;BME280;62772;48.646;8.906;2023-03-03T10:00:21;96581.44;;;2.29;100.00
4598;BME280;62772;48.646;8.906;2023-03-03T10:05:49;96583.84;;;2.30;100.00
4598;BME280;62772;48.646;8.906;2023-03-03T10:11:22;96579.16;;;2.38;100.00
4598;BME280;62772;48.646;8.906;2023-03-03T10:16:52;96568.72;;;2.21;100.00
4598;BME280;62772;48.646;8.906;2023-03-03T10:22:04;96574.56;;;2.55;100.00
4598;BME280;62772;48.646;8.906;2023-03-03T10:27:34;96591.56;;;2.69;100.00
4598;BME280;62772;48.646;8.906;2023-03-03T10:32:59;96593.19;;;2.76;100.00
4598;BME280;62772;48.646;8.906;2023-03-03T10:43:29;96585.31;;;3.23;100.00
4598;BME280;62772;48.646;8.906;2023-03-03T11:04:41;96581.00;;;3.55;100.00
4598;BME280;62772;48.646;8.906;2023-03-03T11:15:33;96570.00;;;3.99;100.00
4598;BME280;62772;48.646;8.906;2023-03-03T11:26:08;96571.66;;;4.15;95.11
4598;BME280;62772;48.646;8.906;2023-03-03T11:31:41;96569.28;;;4.24;94.78
4598;BME280;62772;48.646;8.906;2023-03-03T11:36:50;96565.06;;;4.64;92.39
4598;BME280;62772;48.646;8.906;2023-03-03T11:48:13;96547.06;;;4.92;86.92
4598;BME280;62772;48.646;8.906;2023-03-03T11:53:24;96556.00;;;5.12;85.18
4598;BME280;62772;48.646;8.906;2023-03-03T11:58:31;96552.25;;;5.28;84.87
4598;BME280;62772;48.646;8.906;2023-03-03T12:09:06;96530.50;;;5.41;83.07
4598;BME280;62772;48.646;8.906;2023-03-03T12:25:13;96531.00;;;5.54;78.29
4598;BME280;62772;48.646;8.906;2023-03-03T12:41:44;96534.31;;;5.80;81.52
4598;BME280;62772;48.646;8.906;2023-03-03T12:46:58;96529.06;;;5.70;82.36
4598;BME280;62772;48.646;8.906;2023-03-03T12:52:18;96520.84;;;5.71;81.46
4598;BME280;62772;48.646;8.906;2023-03-03T13:08:31;96538.22;;;5.93;75.72
4598;BME280;62772;48.646;8.906;2023-03-03T13:13:44;96531.38;;;5.81;73.99
4598;BME280;62772;48.646;8.906;2023-03-03T13:18:53;96535.66;;;5.72;75.68
4598;BME280;62772;48.646;8.906;2023-03-03T13:24:12;96529.03;;;5.75;76.31
4598;BME280;62772;48.646;8.906;2023-03-03T13:29:24;96529.78;;;5.86;75.10
4598;BME280;62772;48.646;8.906;2023-03-03T13:35:05;96522.31;;;5.93;71.30
4598;BME280;62772;48.646;8.906;2023-03-03T13:45:42;96522.56;;;6.02;73.69
4598;BME280;62772;48.646;8.906;2023-03-03T13:51:06;96522.00;;;6.05;70.84
4598;BME280;62772;48.646;8.906;2023-03-03T14:01:34;96516.72;;;6.05;70.14
4598;BME280;62772;48.646;8.906;2023-03-03T14:06:40;96513.69;;;6.16;71.32
4598;BME280;62772;48.646;8.906;2023-03-03T14:11:52;96509.00;;;6.08;71.42
4598;BME280;62772;48.646;8.906;2023-03-03T14:16:59;96507.06;;;6.14;71.57
4598;BME280;62772;48.646;8.906;2023-03-03T14:27:53;96500.94;;;6.24;69.11
4598;BME280;62772;48.646;8.906;2023-03-03T14:43:22;96503.03;;;6.27;69.84
4598;BME280;62772;48.646;8.906;2023-03-03T14:48:25;96501.22;;;6.22;68.52
4598;BME280;62772;48.646;8.906;2023-03-03T14:53:34;96500.13;;;6.23;68.13
4598;BME280;62772;48.646;8.906;2023-03-03T14:58:40;96492.44;;;6.27;68.10
4598;BME280;62772;48.646;8.906;2023-03-03T15:03:47;96497.44;;;6.28;69.55
4598;BME280;62772;48.646;8.906;2023-03-03T15:08:49;96494.06;;;6.17;68.28
4598;BME280;62772;48.646;8.906;2023-03-03T15:13:50;96495.06;;;6.27;69.06
4598;BME280;62772;48.646;8.906;2023-03-03T15:24:38;96489.25;;;6.25;68.73
4598;BME280;62772;48.646;8.906;2023-03-03T15:45:55;96482.91;;;6.21;71.96
4598;BME280;62772;48.646;8.906;2023-03-03T15:56:41;96494.31;;;6.21;71.73
4598;BME280;62772;48.646;8.906;2023-03-03T16:02:14;96497.63;;;6.03;75.08
4598;BME280;62772;48.646;8.906;2023-03-03T16:07:41;96504.28;;;6.00;75.31
4598;BME280;62772;48.646;8.906;2023-03-03T16:23:29;96507.16;;;6.04;73.64
4598;BME280;62772;48.646;8.906;2023-03-03T16:28:42;96509.31;;;5.91;75.42
4598;BME280;62772;48.646;8.906;2023-03-03T16:39:01;96524.31;;;5.67;78.33
4598;BME280;62772;48.646;8.906;2023-03-03T16:49:50;96539.41;;;5.71;77.58
4598;BME280;62772;48.646;8.906;2023-03-03T16:54:56;96533.84;;;5.62;77.84
4598;BME280;62772;48.646;8.906;2023-03-03T17:00:18;96546.16;;;5.38;81.36
4598;BME280;62772;48.646;8.906;2023-03-03T17:05:41;96548.53;;;5.34;81.32
4598;BME280;62772;48.646;8.906;2023-03-03T17:11:01;96548.28;;;5.41;81.19
4598;BME280;62772;48.646;8.906;2023-03-03T17:21:23;96562.38;;;5.16;81.56
4598;BME280;62772;48.646;8.906;2023-03-03T17:26:56;96566.09;;;4.27;88.01
4598;BME280;62772;48.646;8.906;2023-03-03T17:32:09;96577.06;;;3.68;93.62
4598;BME280;62772;48.646;8.906;2023-03-03T17:37:39;96589.72;;;3.07;100.00
4598;BME280;62772;48.646;8.906;2023-03-03T17:42:52;96593.72;;;2.78;100.00
4598;BME280;62772;48.646;8.906;2023-03-03T17:58:49;96624.50;;;2.12;100.00
4598;BME280;62772;48.646;8.906;2023-03-03T18:14:48;96625.72;;;0.99;100.00
4598;BME280;62772;48.646;8.906;2023-03-03T18:25:17;96635.59;;;2.14;100.00
4598;BME280;62772;48.646;8.906;2023-03-03T18:30:29;96641.75;;;2.52;100.00
4598;BME280;62772;48.646;8.906;2023-03-03T18:40:33;96648.16;;;2.57;100.00
4598;BME280;62772;48.646;8.906;2023-03-03T18:50:35;96658.81;;;1.51;100.00
4598;BME280;62772;48.646;8.906;2023-03-03T18:55:50;96656.09;;;1.07;100.00
4598;BME280;62772;48.646;8.906;2023-03-03T19:00:55;96665.84;;;0.44;100.00
4598;BME280;62772;48.646;8.906;2023-03-03T19:06:08;96658.38;;;1.03;100.00
4598;BME280;62772;48.646;8.906;2023-03-03T19:11:29;96669.72;;;0.41;100.00
4598;BME280;62772;48.646;8.906;2023-03-03T19:16:31;96668.34;;;1.18;100.00
4598;BME280;62772;48.646;8.906;2023-03-03T19:21:37;96675.13;;;1.14;100.00
4598;BME280;62772;48.646;8.906;2023-03-03T19:43:07;96682.63;;;1.05;100.00
4598;BME280;62772;48.646;8.906;2023-03-03T19:53:30;96686.84;;;1.06;100.00
4598;BME280;62772;48.646;8.906;2023-03-03T19:59:04;96687.63;;;0.73;100.00
4598;BME280;62772;48.646;8.906;2023-03-03T20:09:25;96688.00;;;0.48;100.00
4598;BME280;62772;48.646;8.906;2023-03-03T20:25:18;96707.69;;;0.62;100.00
4598;BME280;62772;48.646;8.906;2023-03-03T20:35:58;96714.97;;;0.03;100.00
4598;BME280;62772;48.646;8.906;2023-03-03T20:41:29;96719.78;;;0.06;100.00
4598;BME280;62772;48.646;8.906;2023-03-03T20:47:01;96723.81;;;-0.15;100.00
4598;BME280;62772;48.646;8.906;2023-03-03T20:52:33;96714.69;;;0.28;100.00
4598;BME280;62772;48.646;8.906;2023-03-03T20:57:43;96724.25;;;-0.07;100.00
4598;BME280;62772;48.646;8.906;2023-03-03T21:03:12;96721.50;;;0.00;100.00
4598;BME280;62772;48.646;8.906;2023-03-03T21:08:13;96712.56;;;0.13;100.00
4598;BME280;62772;48.646;8.906;2023-03-03T21:13:26;96718.28;;;-0.02;100.00
4598;BME280;62772;48.646;8.906;2023-03-03T21:18:33;96715.56;;;-0.07;100.00
4598;BME280;62772;48.646;8.906;2023-03-03T21:23:33;96722.22;;;-0.87;100.00
4598;BME280;62772;48.646;8.906;2023-03-03T21:28:34;96725.31;;;-0.79;100.00
4598;BME280;62772;48.646;8.906;2023-03-03T21:33:52;96720.88;;;-0.55;100.00
4598;BME280;62772;48.646;8.906;2023-03-03T21:38:53;96723.03;;;-0.87;100.00
4598;BME280;62772;48.646;8.906;2023-03-03T21:43:54;96722.09;;;-0.33;100.00
4598;BME280;62772;48.646;8.906;2023-03-03T21:48:55;96719.50;;;-1.35;100.00
4598;BME280;62772;48.646;8.906;2023-03-03T21:53:55;96728.84;;;-0.61;100.00
4598;BME280;62772;48.646;8.906;2023-03-03T21:58:56;96719.72;;;-0.23;100.00
4598;BME280;62772;48.646;8.906;2023-03-03T22:03:56;96723.72;;;-0.56;100.00
4598;BME280;62772;48.646;8.906;2023-03-03T22:08:57;96728.63;;;-0.60;100.00
4598;BME280;62772;48.646;8.906;2023-03-03T22:13:57;96731.25;;;-0.48;100.00
4598;BME280;62772;48.646;8.906;2023-03-03T22:18:58;96727.38;;;-0.81;100.00
4598;BME280;62772;48.646;8.906;2023-03-03T22:23:58;96726.28;;;-1.15;100.00
4598;BME280;62772;48.646;8.906;2023-03-03T22:28:59;96722.31;;;-0.94;100.00
4598;BME280;62772;48.646;8.906;2023-03-03T22:34:00;96725.09;;;-0.53;100.00
4598;BME280;62772;48.646;8.906;2023-03-03T22:39:00;96725.41;;;-0.85;100.00
4598;BME280;62772;48.646;8.906;2023-03-03T22:44:01;96725.78;;;-0.70;100.00
4598;BME280;62772;48.646;8.906;2023-03-03T22:49:01;96722.81;;;-0.50;100.00
4598;BME280;62772;48.646;8.906;2023-03-03T22:54:01;96728.72;;;-0.90;100.00
4598;BME280;62772;48.646;8.906;2023-03-03T22:59:02;96727.94;;;-0.67;100.00
4598;BME280;62772;48.646;8.906;2023-03-03T23:04:02;96724.19;;;-0.71;100.00
4598;BME280;62772;48.646;8.906;2023-03-03T23:09:03;96728.84;;;-0.61;100.00
4598;BME280;62772;48.646;8.906;2023-03-03T23:14:04;96728.97;;;-0.68;100.00
4598;BME280;62772;48.646;8.906;2023-03-03T23:19:04;96720.41;;;-1.41;100.00
4598;BME280;62772;48.646;8.906;2023-03-03T23:24:05;96722.91;;;-1.34;100.00
4598;BME280;62772;48.646;8.906;2023-03-03T23:29:05;96723.59;;;-1.69;100.00
4598;BME280;62772;48.646;8.906;2023-03-03T23:34:06;96733.09;;;-1.56;100.00
4598;BME280;62772;48.646;8.906;2023-03-03T23:39:06;96736.63;;;-1.20;100.00
4598;BME280;62772;48.646;8.906;2023-03-03T23:44:07;96738.16;;;-1.13;100.00
4598;BME280;62772;48.646;8.906;2023-03-03T23:49:07;96732.50;;;-1.28;100.00
4598;BME280;62772;48.646;8.906;2023-03-03T23:54:08;96734.34;;;-1.29;100.00
4598;BME280;62772;48.646;8.906;2023-03-03T23:59:08;96741.09;;;-1.21;100.00
